Time;durP1;ratioP1;P1;durP2;ratioP2;P2;SDS_P1;SDS_P2;PMS_P1;PMS_P2;Temp;Humidity;BMP_temperature;BMP_pressure;BME280_temperature;BME280_humidity;BME280_pressure;Samples;Min_cycle;Max_cycle;Signal;HPM_P1;HPM_P2
2023/06/09 00:00:39;;;;;;;5.68;4.55;;;19.90;77.10;;;;;;5010219;28;20044;-65
2023/06/09 00:03:05;;;;;;;8.10;4.75;;;19.80;77.40;;;;;;5012725;28;20140;-65
2023/06/09 00:05:32;;;;;;;6.15;4.47;;;19.80;77.60;;;;;;5010375;28;20420;-66
2023/06/09 00:07:59;;;;;;;7.55;5.05;;;19.80;77.50;;;;;;5011476;28;20129;-64
2023/06/09 00:10:25;;;;;;;7.53;5.20;;;19.80;77.50;;;;;;5010363;28;20033;-65
2023/06/09 00:12:52;;;;;;;6.68;4.63;;;19.80;77.70;;;;;;5011035;28;20033;-64
2023/06/09 00:15:18;;;;;;;6.38;5.15;;;19.80;77.80;;;;;;5005022;28;20030;-65
2023/06/09 00:17:45;;;;;;;7.50;5.20;;;19.80;77.90;;;;;;5009976;28;20048;-66
2023/06/09 00:20:12;;;;;;;6.30;4.88;;;19.80;78.20;;;;;;5010865;28;20030;-65
2023/06/09 00:22:42;;;;;;;7.80;5.10;;;19.80;78.50;;;;;;5010745;28;20491;-65
2023/06/09 00:25:13;;;;;;;6.43;4.88;;;19.80;78.50;;;;;;5012062;28;21007;-65
2023/06/09 00:27:40;;;;;;;7.82;5.07;;;19.70;78.50;;;;;;5015708;28;20036;-66
2023/06/09 00:30:07;;;;;;;7.07;4.82;;;19.70;78.60;;;;;;5013513;28;20128;-65
2023/06/09 00:32:34;;;;;;;9.25;5.50;;;19.70;78.90;;;;;;5014528;28;20193;-65
2023/06/09 00:35:00;;;;;;;7.15;4.63;;;19.70;79.00;;;;;;5016079;28;20041;-65
2023/06/09 00:37:26;;;;;;;6.90;5.82;;;19.70;79.00;;;;;;5012567;28;20034;-66
2023/06/09 00:39:52;;;;;;;7.25;5.47;;;19.70;79.20;;;;;;5014635;28;20017;-67
2023/06/09 00:42:17;;;;;;;8.65;5.60;;;19.60;79.40;;;;;;5005170;28;20948;-63
2023/06/09 00:44:43;;;;;;;7.40;5.18;;;19.60;79.70;;;;;;4998790;28;20124;-62
2023/06/09 00:47:10;;;;;;;9.82;5.30;;;19.60;79.80;;;;;;4997094;28;20033;-65
2023/06/09 00:49:36;;;;;;;9.30;5.63;;;19.50;80.30;;;;;;5000591;28;20014;-62
2023/06/09 00:52:03;;;;;;;7.65;5.78;;;19.50;80.40;;;;;;5015952;28;20025;-62
2023/06/09 00:54:30;;;;;;;9.15;5.70;;;19.50;80.60;;;;;;4994422;28;20026;-61
2023/06/09 00:56:56;;;;;;;8.00;5.13;;;19.40;81.00;;;;;;5012588;28;20074;-62
2023/06/09 00:59:22;;;;;;;6.78;5.30;;;19.40;81.00;;;;;;4983705;28;20406;-62
2023/06/09 01:01:48;;;;;;;5.82;5.22;;;19.40;81.10;;;;;;4999819;28;20033;-62
2023/06/09 01:04:14;;;;;;;8.43;5.50;;;19.40;81.30;;;;;;5009449;28;20556;-65
2023/06/09 01:07:04;;;;;;;8.48;5.40;;;19.40;81.40;;;;;;5016220;28;20126;-62
2023/06/09 01:09:41;;;;;;;7.10;5.13;;;19.40;81.60;;;;;;4994091;28;20486;-63
2023/06/09 01:12:38;;;;;;;6.63;5.18;;;19.30;81.80;;;;;;4992007;28;20025;-63
2023/06/09 01:15:12;;;;;;;7.50;5.75;;;19.30;82.00;;;;;;5010229;28;20028;-63
2023/06/09 01:17:42;;;;;;;6.90;5.63;;;19.20;82.30;;;;;;4995531;28;20034;-63
2023/06/09 01:20:11;;;;;;;8.38;5.90;;;19.20;82.50;;;;;;5014769;28;20034;-63
2023/06/09 01:23:04;;;;;;;7.25;5.32;;;19.20;82.80;;;;;;5014495;28;20813;-63
2023/06/09 01:25:41;;;;;;;8.73;5.45;;;19.20;83.20;;;;;;4977525;28;20033;-63
2023/06/09 01:28:16;;;;;;;7.70;6.03;;;19.10;83.60;;;;;;5007813;28;20036;-65
2023/06/09 01:30:46;;;;;;;8.00;5.95;;;19.10;83.90;;;;;;4994875;28;20036;-63
2023/06/09 01:33:17;;;;;;;9.88;6.82;;;19.00;84.00;;;;;;5012236;28;20029;-64
2023/06/09 01:35:43;;;;;;;12.82;6.45;;;19.00;84.20;;;;;;5013766;28;20033;-64
2023/06/09 01:38:10;;;;;;;7.95;5.50;;;18.90;84.60;;;;;;5011202;28;20041;-63
2023/06/09 01:40:36;;;;;;;7.85;6.05;;;18.80;84.80;;;;;;4996455;28;20087;-63
2023/06/09 01:43:05;;;;;;;7.80;6.10;;;18.80;85.20;;;;;;4985468;28;20298;-63
2023/06/09 01:45:31;;;;;;;7.38;5.93;;;18.80;85.40;;;;;;4983580;28;20044;-62
2023/06/09 01:47:58;;;;;;;8.98;6.40;;;18.70;85.80;;;;;;4985372;28;20033;-63
2023/06/09 01:50:37;;;;;;;9.85;6.40;;;18.70;86.10;;;;;;4994578;28;20080;-62
2023/06/09 01:53:12;;;;;;;11.77;6.35;;;18.60;86.50;;;;;;5011146;28;20029;-63
2023/06/09 01:55:48;;;;;;;9.43;6.13;;;18.60;87.20;;;;;;5013684;28;20084;-63
2023/06/09 01:58:22;;;;;;;8.15;5.60;;;18.50;87.90;;;;;;4977715;28;20034;-64
2023/06/09 02:00:50;;;;;;;8.25;6.18;;;18.50;87.60;;;;;;4997348;28;20071;-63
2023/06/09 02:03:20;;;;;;;9.18;6.32;;;18.40;87.80;;;;;;4995186;28;20061;-63
2023/06/09 02:05:46;;;;;;;9.65;6.53;;;18.40;88.10;;;;;;5015026;28;20050;-66
2023/06/09 02:08:13;;;;;;;11.18;6.78;;;18.40;88.50;;;;;;5013688;28;20029;-66
2023/06/09 02:10:39;;;;;;;8.10;6.57;;;18.30;89.60;;;;;;4995967;28;20034;-66
2023/06/09 02:13:32;;;;;;;8.98;7.13;;;18.30;89.40;;;;;;4993830;28;20029;-66
2023/06/09 02:15:57;;;;;;;8.65;6.32;;;18.20;89.50;;;;;;5008532;28;20091;-66
2023/06/09 02:18:24;;;;;;;7.32;5.85;;;18.20;90.00;;;;;;4994274;28;20049;-66
2023/06/09 02:20:50;;;;;;;11.65;6.57;;;18.20;90.20;;;;;;5010506;28;20030;-66
2023/06/09 02:23:18;;;;;;;11.35;6.97;;;18.10;90.30;;;;;;4994328;28;20390;-66
2023/06/09 02:25:46;;;;;;;9.52;6.55;;;18.10;90.50;;;;;;5013150;28;20026;-66
2023/06/09 02:28:13;;;;;;;9.02;6.28;;;18.10;90.50;;;;;;4993091;28;20030;-65
2023/06/09 02:30:39;;;;;;;9.10;6.80;;;18.00;90.70;;;;;;5012151;28;20622;-65
2023/06/09 02:33:05;;;;;;;9.63;6.95;;;18.00;90.70;;;;;;4995653;28;20030;-65
2023/06/09 02:35:31;;;;;;;9.13;6.32;;;18.00;90.90;;;;;;5013750;28;20028;-64
2023/06/09 02:37:58;;;;;;;10.73;7.30;;;18.00;91.00;;;;;;4992587;28;20036;-64
2023/06/09 02:40:26;;;;;;;10.93;7.20;;;18.00;91.10;;;;;;4993791;28;20413;-66
2023/06/09 02:42:52;;;;;;;9.73;6.60;;;17.90;91.20;;;;;;4992990;28;20060;-66
2023/06/09 02:45:18;;;;;;;12.20;7.18;;;17.90;91.30;;;;;;4990226;28;20025;-65
2023/06/09 02:47:44;;;;;;;9.82;6.43;;;17.90;91.40;;;;;;5013641;28;20033;-66
2023/06/09 02:50:11;;;;;;;9.55;6.40;;;17.80;91.40;;;;;;4992972;28;20539;-65
2023/06/09 02:52:39;;;;;;;10.82;6.75;;;17.80;91.60;;;;;;5013539;28;20022;-66
2023/06/09 02:55:07;;;;;;;10.63;7.18;;;17.80;91.60;;;;;;4992356;28;20037;-66
2023/06/09 02:57:36;;;;;;;9.95;7.40;;;17.80;91.70;;;;;;5007870;28;20036;-66
2023/06/09 03:00:06;;;;;;;9.18;7.00;;;17.70;91.80;;;;;;4989537;28;20032;-65
2023/06/09 03:02:32;;;;;;;8.57;6.85;;;17.70;91.90;;;;;;4991796;28;20099;-66
2023/06/09 03:05:00;;;;;;;11.52;7.15;;;17.70;92.10;;;;;;4993469;28;20136;-66
2023/06/09 03:07:26;;;;;;;11.00;7.22;;;17.60;92.20;;;;;;4992240;28;20053;-66
2023/06/09 03:09:52;;;;;;;10.85;7.38;;;17.60;92.30;;;;;;4986335;28;20064;-65
2023/06/09 03:12:17;;;;;;;10.20;7.28;;;17.60;92.40;;;;;;4992613;28;20032;-65
2023/06/09 03:14:43;;;;;;;9.63;7.25;;;17.60;92.50;;;;;;4992751;28;20052;-63
2023/06/09 03:17:10;;;;;;;12.82;8.60;;;17.50;92.60;;;;;;4987133;28;20026;-63
2023/06/09 03:19:36;;;;;;;13.15;8.05;;;17.50;92.80;;;;;;5009745;28;20038;-66
2023/06/09 03:22:03;;;;;;;12.43;7.82;;;17.50;92.90;;;;;;4988734;28;20038;-63
2023/06/09 03:24:33;;;;;;;9.88;7.03;;;17.40;93.00;;;;;;4988175;28;20038;-63
2023/06/09 03:27:00;;;;;;;9.38;6.90;;;17.40;93.40;;;;;;4993429;28;20366;-63
2023/06/09 03:29:30;;;;;;;9.05;7.47;;;17.40;93.20;;;;;;4992744;28;20049;-63
2023/06/09 03:31:56;;;;;;;7.95;6.57;;;17.40;93.30;;;;;;5008159;28;20203;-63
2023/06/09 03:34:23;;;;;;;8.85;6.82;;;17.40;93.40;;;;;;4990864;28;20052;-63
2023/06/09 03:36:50;;;;;;;9.15;7.22;;;17.40;93.80;;;;;;4994268;28;20108;-63
2023/06/09 03:39:16;;;;;;;9.05;7.00;;;17.40;93.50;;;;;;4986635;28;20021;-63
2023/06/09 03:41:43;;;;;;;9.38;7.40;;;17.40;93.70;;;;;;4993420;28;20060;-63
2023/06/09 03:44:09;;;;;;;11.35;7.63;;;17.40;93.80;;;;;;4990898;28;20124;-63
2023/06/09 03:46:35;;;;;;;12.38;7.38;;;17.30;93.90;;;;;;4993567;28;20057;-63
2023/06/09 03:49:02;;;;;;;10.88;7.60;;;17.40;94.00;;;;;;4989951;28;20083;-63
2023/06/09 03:51:28;;;;;;;8.88;6.80;;;17.40;94.10;;;;;;4983220;28;20599;-63
2023/06/09 03:53:56;;;;;;;8.15;6.90;;;17.30;94.20;;;;;;4991511;28;20029;-65
2023/06/09 03:56:22;;;;;;;10.82;7.50;;;17.30;94.30;;;;;;4990081;28;20076;-63
2023/06/09 03:58:48;;;;;;;9.77;7.90;;;17.40;94.30;;;;;;4993448;28;20042;-63
2023/06/09 04:01:17;;;;;;;9.43;7.40;;;17.40;94.40;;;;;;4993574;28;20025;-65
2023/06/09 04:03:45;;;;;;;13.13;7.20;;;17.40;94.50;;;;;;4994209;28;20032;-66
2023/06/09 04:06:10;;;;;;;12.95;7.65;;;17.40;94.50;;;;;;5016783;28;20041;-66
2023/06/09 04:08:36;;;;;;;11.35;7.07;;;17.50;94.50;;;;;;4996110;28;20584;-63
2023/06/09 04:11:02;;;;;;;11.35;7.65;;;17.50;94.40;;;;;;4997788;28;20057;-66
2023/06/09 04:13:28;;;;;;;13.88;8.32;;;17.50;94.50;;;;;;4994310;28;20034;-66
2023/06/09 04:15:55;;;;;;;10.30;7.13;;;17.50;94.60;;;;;;4997279;28;20123;-66
2023/06/09 04:18:20;;;;;;;10.02;6.97;;;17.50;94.60;;;;;;5011725;28;20112;-66
2023/06/09 04:20:47;;;;;;;11.13;7.15;;;17.50;94.60;;;;;;4996375;28;20033;-65
2023/06/09 04:23:13;;;;;;;10.60;7.05;;;17.60;94.70;;;;;;5011536;28;20037;-65
2023/06/09 04:25:42;;;;;;;14.43;7.60;;;17.60;94.70;;;;;;4995115;28;20022;-65
2023/06/09 04:28:12;;;;;;;12.50;6.78;;;17.60;94.70;;;;;;4995013;28;20021;-64
2023/06/09 04:30:38;;;;;;;9.48;6.88;;;17.70;94.70;;;;;;4994082;28;20044;-63
2023/06/09 04:33:07;;;;;;;8.77;6.25;;;17.70;94.70;;;;;;4995594;28;20657;-65
2023/06/09 04:35:35;;;;;;;10.25;7.30;;;17.80;94.70;;;;;;4994751;28;20022;-66
2023/06/09 04:38:01;;;;;;;9.77;6.60;;;17.80;94.60;;;;;;4994377;28;20119;-66
2023/06/09 04:40:29;;;;;;;10.07;6.63;;;17.80;94.30;;;;;;4992826;28;20030;-66
2023/06/09 04:42:57;;;;;;;12.18;7.05;;;18.00;94.20;;;;;;4995378;28;20029;-65
2023/06/09 04:45:27;;;;;;;8.63;6.53;;;18.00;94.30;;;;;;4993494;28;20053;-65
2023/06/09 04:47:59;;;;;;;9.02;6.32;;;18.00;93.90;;;;;;4994458;28;20029;-63
2023/06/09 04:50:29;;;;;;;14.95;7.35;;;18.10;93.90;;;;;;4994308;28;20026;-63
2023/06/09 04:52:57;;;;;;;10.38;6.57;;;18.10;93.90;;;;;;5013954;28;20100;-65
2023/06/09 04:55:26;;;;;;;12.18;7.07;;;18.20;93.90;;;;;;4993675;28;20755;-63
2023/06/09 04:57:56;;;;;;;8.48;5.97;;;18.20;93.80;;;;;;4980418;28;20072;-64
2023/06/09 05:00:29;;;;;;;11.52;6.63;;;18.30;93.70;;;;;;4993805;28;20040;-63
2023/06/09 05:02:57;;;;;;;6.87;5.63;;;18.40;93.50;;;;;;4997438;28;20088;-63
2023/06/09 05:05:25;;;;;;;7.80;5.97;;;18.40;93.50;;;;;;4987795;28;20338;-65
2023/06/09 05:07:51;;;;;;;10.15;6.22;;;18.50;93.30;;;;;;5008021;28;20033;-65
2023/06/09 05:10:18;;;;;;;7.80;5.75;;;18.60;93.10;;;;;;4977362;28;20066;-65
2023/06/09 05:12:44;;;;;;;7.18;5.57;;;18.60;93.10;;;;;;4996337;28;20052;-65
2023/06/09 05:15:11;;;;;;;8.07;5.20;;;18.70;92.50;;;;;;4992944;28;20805;-66
2023/06/09 05:17:37;;;;;;;8.52;6.00;;;18.70;92.30;;;;;;4992518;28;20508;-64
2023/06/09 05:20:06;;;;;;;9.35;5.70;;;18.80;92.30;;;;;;4989917;28;20038;-63
2023/06/09 05:22:33;;;;;;;8.43;5.50;;;18.90;92.20;;;;;;4992994;28;20053;-63
2023/06/09 05:24:59;;;;;;;7.20;4.82;;;19.20;91.50;;;;;;4995430;28;20116;-63
2023/06/09 05:27:25;;;;;;;7.97;4.75;;;19.30;90.80;;;;;;4991725;28;20556;-63
2023/06/09 05:29:51;;;;;;;7.30;4.80;;;19.40;88.90;;;;;;5012968;28;20036;-66
2023/06/09 05:32:18;;;;;;;8.82;4.75;;;19.50;86.00;;;;;;4995140;28;20763;-63
2023/06/09 05:34:47;;;;;;;5.15;4.18;;;19.50;87.00;;;;;;4995403;28;20018;-66
2023/06/09 05:37:16;;;;;;;5.47;3.97;;;19.60;85.90;;;;;;4995696;28;20791;-63
2023/06/09 05:39:42;;;;;;;4.93;3.50;;;19.60;82.00;;;;;;4994824;28;20080;-66
2023/06/09 05:42:09;;;;;;;7.40;3.90;;;19.70;82.10;;;;;;4991150;28;20045;-66
2023/06/09 05:44:35;;;;;;;5.15;3.67;;;19.90;82.40;;;;;;5013922;28;20026;-67
2023/06/09 05:47:01;;;;;;;5.90;4.00;;;19.90;82.50;;;;;;5013501;28;20146;-66
2023/06/09 05:49:27;;;;;;;7.85;3.60;;;20.00;80.50;;;;;;5011422;28;20065;-63
2023/06/09 05:51:52;;;;;;;5.00;3.60;;;20.10;80.50;;;;;;5009042;28;20110;-63
2023/06/09 05:54:18;;;;;;;5.18;3.50;;;20.20;79.30;;;;;;5010796;28;20786;-66
2023/06/09 05:56:45;;;;;;;4.22;3.53;;;20.30;76.40;;;;;;5011007;28;20645;-64
2023/06/09 05:59:12;;;;;;;5.72;2.92;;;20.40;74.30;;;;;;4992923;28;20440;-64
2023/06/09 06:01:38;;;;;;;6.45;3.35;;;20.50;71.80;;;;;;5013085;28;20088;-64
2023/06/09 06:04:03;;;;;;;5.38;3.03;;;20.60;65.90;;;;;;5012028;28;20029;-63
2023/06/09 06:06:32;;;;;;;3.80;3.08;;;20.70;69.30;;;;;;5012362;28;20478;-67
2023/06/09 06:08:58;;;;;;;4.82;2.88;;;20.90;71.90;;;;;;5010769;28;20040;-67
2023/06/09 06:11:23;;;;;;;4.75;3.20;;;20.90;68.30;;;;;;5010351;28;20034;-63
2023/06/09 06:13:49;;;;;;;4.00;3.15;;;21.00;64.30;;;;;;5012832;28;21000;-65
2023/06/09 06:16:15;;;;;;;4.93;3.00;;;21.10;65.80;;;;;;5011392;28;20476;-65
2023/06/09 06:18:41;;;;;;;3.97;2.83;;;21.20;66.60;;;;;;5010091;28;20441;-64
2023/06/09 06:21:07;;;;;;;5.68;3.22;;;21.30;65.10;;;;;;5011285;28;20029;-66
2023/06/09 06:23:33;;;;;;;4.38;2.30;;;21.40;63.30;;;;;;5011588;28;20061;-66
2023/06/09 06:25:59;;;;;;;4.07;2.70;;;21.50;61.40;;;;;;5010845;28;20022;-64
2023/06/09 06:28:25;;;;;;;4.85;3.10;;;21.50;61.80;;;;;;5009586;28;20365;-67
2023/06/09 06:30:50;;;;;;;6.25;3.00;;;21.60;61.10;;;;;;5012792;28;20026;-64
2023/06/09 06:33:16;;;;;;;4.40;2.90;;;21.70;59.20;;;;;;5008326;28;20375;-64
2023/06/09 06:35:42;;;;;;;7.18;3.20;;;21.80;59.60;;;;;;5011794;28;20064;-66
2023/06/09 06:38:08;;;;;;;4.72;2.72;;;21.90;59.20;;;;;;5010337;28;20037;-67
2023/06/09 06:40:34;;;;;;;5.68;3.00;;;21.90;58.60;;;;;;5010631;28;20037;-66
2023/06/09 06:42:59;;;;;;;5.00;2.63;;;22.00;59.30;;;;;;5010298;28;20036;-64
2023/06/09 06:45:30;;;;;;;4.43;2.38;;;22.10;59.70;;;;;;4991238;28;20026;-64
2023/06/09 06:47:56;;;;;;;4.20;2.88;;;22.20;60.10;;;;;;5011824;28;20022;-64
2023/06/09 06:50:22;;;;;;;5.07;2.90;;;22.20;60.00;;;;;;5009526;28;20057;-66
2023/06/09 06:52:48;;;;;;;3.30;2.45;;;22.40;57.20;;;;;;5012738;28;20104;-66
2023/06/09 06:55:14;;;;;;;3.60;2.50;;;22.40;55.60;;;;;;5010714;28;20036;-67
2023/06/09 06:57:40;;;;;;;4.32;2.63;;;22.50;54.40;;;;;;5013435;28;20044;-67
2023/06/09 07:00:16;;;;;;;5.88;3.20;;;22.70;56.10;;;;;;5009895;28;20037;-63
2023/06/09 07:02:48;;;;;;;3.25;2.92;;;22.80;54.30;;;;;;5007445;28;20072;-64
2023/06/09 07:05:15;;;;;;;4.45;2.65;;;22.90;54.00;;;;;;5011073;28;20044;-64
2023/06/09 07:07:43;;;;;;;3.38;2.72;;;23.00;52.70;;;;;;5009889;28;20033;-63
2023/06/09 07:10:10;;;;;;;4.93;3.03;;;23.10;52.00;;;;;;5010651;28;20029;-66
2023/06/09 07:12:36;;;;;;;3.13;2.70;;;23.20;52.30;;;;;;5010872;28;20140;-67
2023/06/09 07:15:03;;;;;;;7.72;2.97;;;23.30;51.60;;;;;;5010373;28;20572;-66
2023/06/09 07:17:29;;;;;;;5.95;2.70;;;23.30;49.50;;;;;;5010426;28;20038;-67
2023/06/09 07:19:55;;;;;;;4.75;2.22;;;23.40;50.30;;;;;;4992646;28;20029;-66
2023/06/09 07:22:21;;;;;;;5.68;3.08;;;23.40;49.70;;;;;;5008456;28;20099;-64
2023/06/09 07:24:47;;;;;;;4.97;2.80;;;23.50;50.60;;;;;;4990458;28;20673;-64
2023/06/09 07:27:14;;;;;;;3.67;2.17;;;23.50;49.90;;;;;;5009079;28;20807;-64
2023/06/09 07:29:41;;;;;;;3.13;2.67;;;23.70;51.20;;;;;;5010436;28;20041;-63
2023/06/09 07:32:08;;;;;;;4.70;2.83;;;23.80;50.20;;;;;;5008940;28;20061;-64
2023/06/09 07:34:35;;;;;;;2.97;2.47;;;23.90;50.40;;;;;;4992553;28;20536;-64
2023/06/09 07:37:03;;;;;;;3.55;2.70;;;23.90;51.10;;;;;;5009535;28;20032;-64
2023/06/09 07:39:29;;;;;;;4.22;2.85;;;24.00;51.80;;;;;;5008186;28;20022;-64
2023/06/09 07:41:55;;;;;;;4.82;3.10;;;24.00;50.80;;;;;;5012242;28;20091;-64
2023/06/09 07:44:21;;;;;;;4.07;2.80;;;24.10;52.00;;;;;;5008786;28;20041;-64
2023/06/09 07:46:47;;;;;;;7.90;3.28;;;24.10;52.20;;;;;;5010941;28;20041;-64
2023/06/09 07:49:14;;;;;;;6.70;3.17;;;24.30;51.90;;;;;;5007890;28;20044;-64
2023/06/09 07:51:41;;;;;;;6.57;3.20;;;24.40;51.50;;;;;;5011182;28;20033;-64
2023/06/09 07:54:07;;;;;;;4.43;2.90;;;24.40;51.60;;;;;;5007576;28;20033;-64
2023/06/09 07:56:33;;;;;;;13.98;3.22;;;24.50;51.10;;;;;;5008012;28;20041;-64
2023/06/09 07:58:59;;;;;;;5.90;3.33;;;24.60;51.10;;;;;;5011110;28;20156;-64
2023/06/09 08:01:29;;;;;;;4.70;3.05;;;24.70;51.80;;;;;;5007792;28;20869;-64
2023/06/09 08:03:56;;;;;;;5.63;3.42;;;24.80;50.90;;;;;;5001981;28;20249;-64
2023/06/09 08:06:21;;;;;;;7.40;3.40;;;24.90;50.00;;;;;;5008135;28;20030;-64
2023/06/09 08:08:47;;;;;;;4.93;3.65;;;25.00;51.00;;;;;;5010515;28;20064;-64
2023/06/09 08:11:13;;;;;;;5.28;3.58;;;25.10;50.40;;;;;;5008286;28;20079;-64
2023/06/09 08:13:39;;;;;;;6.22;3.08;;;25.20;50.90;;;;;;5008805;28;20109;-64
2023/06/09 08:16:05;;;;;;;4.97;3.17;;;25.30;49.70;;;;;;5012051;28;20553;-64
2023/06/09 08:18:31;;;;;;;9.23;3.95;;;25.40;50.60;;;;;;5007574;28;20056;-64
2023/06/09 08:20:57;;;;;;;7.50;3.28;;;25.50;50.50;;;;;;5011270;28;20080;-64
2023/06/09 08:23:22;;;;;;;3.70;2.83;;;25.60;50.30;;;;;;5007293;28;20026;-64
2023/06/09 08:25:49;;;;;;;5.78;3.40;;;25.70;49.00;;;;;;5014167;28;20033;-65
2023/06/09 08:28:15;;;;;;;6.63;3.30;;;25.80;49.60;;;;;;5008214;28;20037;-65
2023/06/09 08:30:41;;;;;;;7.10;3.55;;;25.80;50.20;;;;;;5010032;28;20752;-65
2023/06/09 08:33:07;;;;;;;5.47;3.10;;;26.00;50.50;;;;;;5010870;28;20112;-65
2023/06/09 08:35:33;;;;;;;4.25;2.95;;;26.10;49.80;;;;;;5007778;28;20022;-65
2023/06/09 08:38:00;;;;;;;4.90;3.40;;;26.20;49.70;;;;;;5010375;28;20029;-64
2023/06/09 08:40:26;;;;;;;7.50;3.47;;;26.30;49.60;;;;;;5007936;28;20042;-64
2023/06/09 08:42:55;;;;;;;6.85;3.58;;;26.30;49.60;;;;;;5011490;28;20033;-64
2023/06/09 08:45:22;;;;;;;5.28;3.83;;;26.40;49.50;;;;;;5009006;28;20602;-64
2023/06/09 08:47:49;;;;;;;8.68;3.83;;;26.40;49.80;;;;;;5013142;28;20142;-65
2023/06/09 08:50:18;;;;;;;7.13;3.28;;;26.40;50.90;;;;;;5011679;28;20105;-65
2023/06/09 08:52:45;;;;;;;6.50;3.58;;;26.50;49.80;;;;;;5012822;28;20492;-64
2023/06/09 08:55:12;;;;;;;3.60;3.00;;;26.60;50.40;;;;;;5013059;28;20040;-65
2023/06/09 08:57:40;;;;;;;5.28;3.60;;;26.70;49.50;;;;;;5013422;28;20042;-65
2023/06/09 09:00:11;;;;;;;7.35;3.90;;;26.70;48.60;;;;;;5014008;28;20036;-64
2023/06/09 09:02:37;;;;;;;6.60;3.38;;;26.90;49.10;;;;;;5014263;28;20110;-64
2023/06/09 09:05:03;;;;;;;6.80;3.55;;;27.00;49.50;;;;;;5012454;28;20442;-65
2023/06/09 09:07:29;;;;;;;7.90;3.53;;;27.10;49.20;;;;;;5011671;28;20037;-64
2023/06/09 09:09:55;;;;;;;7.63;3.22;;;27.20;49.20;;;;;;5015492;28;20022;-65
2023/06/09 09:12:21;;;;;;;7.13;3.70;;;27.20;49.80;;;;;;5013136;28;20133;-65
2023/06/09 09:14:47;;;;;;;8.82;3.72;;;27.20;48.20;;;;;;5012648;28;20627;-64
2023/06/09 09:17:15;;;;;;;4.95;3.05;;;27.10;50.20;;;;;;5010485;28;20406;-65
2023/06/09 09:19:45;;;;;;;8.10;3.45;;;27.10;49.30;;;;;;5013508;28;20037;-65
2023/06/09 09:22:12;;;;;;;5.68;3.75;;;27.10;49.30;;;;;;4974642;28;20045;-65
2023/06/09 09:24:43;;;;;;;6.78;3.47;;;27.10;50.30;;;;;;5010197;28;20566;-65
2023/06/09 09:27:17;;;;;;;6.57;3.50;;;27.10;50.20;;;;;;5012877;28;20041;-64
2023/06/09 09:29:43;;;;;;;7.25;3.33;;;27.10;50.10;;;;;;5012015;28;20060;-65
2023/06/09 09:32:09;;;;;;;7.13;3.80;;;27.10;50.30;;;;;;5009728;28;20021;-65
2023/06/09 09:34:35;;;;;;;7.60;3.70;;;27.20;49.50;;;;;;5011201;28;20036;-65
2023/06/09 09:37:02;;;;;;;5.55;3.55;;;27.30;49.20;;;;;;5011488;28;20021;-64
2023/06/09 09:39:28;;;;;;;5.40;3.53;;;27.30;49.90;;;;;;5011762;28;20058;-65
2023/06/09 09:42:07;;;;;;;5.10;3.45;;;27.50;50.60;;;;;;5011947;28;20559;-65
2023/06/09 09:44:38;;;;;;;5.32;3.83;;;27.70;49.40;;;;;;5010371;28;20040;-65
2023/06/09 09:47:06;;;;;;;5.00;3.38;;;27.80;49.90;;;;;;5008276;28;20485;-65
2023/06/09 09:49:32;;;;;;;5.05;3.78;;;27.90;49.10;;;;;;5008764;28;20033;-64
2023/06/09 09:51:58;;;;;;;6.15;3.92;;;28.00;50.00;;;;;;5009395;28;20292;-64
2023/06/09 09:54:26;;;;;;;6.22;3.67;;;28.10;49.90;;;;;;5010778;28;20037;-65
2023/06/09 09:56:58;;;;;;;4.72;3.58;;;28.10;49.20;;;;;;5012121;28;20532;-65
2023/06/09 09:59:25;;;;;;;4.82;3.45;;;28.20;49.80;;;;;;5010137;28;20042;-64
2023/06/09 10:01:55;;;;;;;9.20;3.95;;;28.30;50.50;;;;;;5012988;28;20126;-65
2023/06/09 10:04:24;;;;;;;7.18;3.97;;;28.40;51.00;;;;;;5010986;28;20030;-65
2023/06/09 10:06:55;;;;;;;5.97;3.63;;;28.60;49.70;;;;;;5013535;28;20021;-65
2023/06/09 10:09:25;;;;;;;4.80;3.60;;;28.70;48.30;;;;;;5008312;28;20030;-65
2023/06/09 10:11:55;;;;;;;5.95;3.83;;;28.70;49.70;;;;;;5009514;28;20027;-65
2023/06/09 10:14:21;;;;;;;6.90;3.53;;;28.80;48.50;;;;;;5011347;28;20114;-64
2023/06/09 10:16:49;;;;;;;5.28;3.42;;;28.90;47.30;;;;;;5013531;28;20132;-65
2023/06/09 10:19:17;;;;;;;6.63;3.40;;;29.00;47.40;;;;;;5009629;28;20442;-64
2023/06/09 10:21:43;;;;;;;8.02;3.50;;;29.00;47.10;;;;;;5011839;28;20029;-64
2023/06/09 10:24:11;;;;;;;4.63;3.60;;;29.00;47.30;;;;;;5011906;28;20038;-64
2023/06/09 10:26:38;;;;;;;14.15;3.53;;;29.10;48.10;;;;;;5011647;28;20168;-65
2023/06/09 10:29:11;;;;;;;6.28;4.07;;;29.20;47.80;;;;;;5011622;28;20033;-60
2023/06/09 10:31:43;;;;;;;7.35;5.57;;;29.10;47.40;;;;;;5013986;28;20033;-59
2023/06/09 10:34:12;;;;;;;8.68;5.10;;;28.90;48.20;;;;;;5008764;28;20038;-59
2023/06/09 10:36:38;;;;;;;12.88;8.60;;;28.50;49.70;;;;;;5006862;28;20030;-59
2023/06/09 10:39:18;;;;;;;9.27;5.10;;;28.20;49.50;;;;;;4981121;28;20142;-58
2023/06/09 10:41:55;;;;;;;5.90;4.00;;;28.00;50.50;;;;;;5011701;28;20596;-60
2023/06/09 10:44:40;;;;;;;6.95;4.90;;;28.00;51.00;;;;;;5008696;28;20125;-60
2023/06/09 10:47:08;;;;;;;5.72;3.70;;;27.80;50.40;;;;;;5004155;28;20120;-62
2023/06/09 10:49:36;;;;;;;4.55;3.85;;;27.70;50.50;;;;;;5004502;28;20042;-62
2023/06/09 10:52:28;;;;;;;6.75;3.90;;;27.50;51.20;;;;;;5012107;28;20748;-62
2023/06/09 10:55:15;;;;;;;8.25;4.05;;;27.50;50.80;;;;;;5001362;28;20018;-61
2023/06/09 10:57:42;;;;;;;6.85;3.22;;;27.50;50.40;;;;;;4996491;28;20030;-61
2023/06/09 11:00:12;;;;;;;6.93;3.30;;;27.60;50.90;;;;;;5015465;28;20109;-61
2023/06/09 11:02:40;;;;;;;6.75;3.40;;;27.70;49.40;;;;;;5012135;28;20076;-62
2023/06/09 11:05:05;;;;;;;4.22;3.17;;;27.90;49.80;;;;;;5003342;28;20025;-61
2023/06/09 11:07:43;;;;;;;7.20;3.22;;;27.90;49.00;;;;;;4988544;28;20630;-62
2023/06/09 11:10:11;;;;;;;5.90;3.38;;;27.80;50.10;;;;;;5000561;28;20104;-62
2023/06/09 11:12:37;;;;;;;3.80;3.13;;;27.80;47.80;;;;;;5002332;28;20029;-62
2023/06/09 11:15:04;;;;;;;5.43;3.17;;;27.80;47.70;;;;;;5005725;28;20030;-62
2023/06/09 11:17:33;;;;;;;5.47;3.35;;;27.80;48.90;;;;;;5000632;28;20030;-61
2023/06/09 11:20:11;;;;;;;3.75;3.33;;;27.70;49.40;;;;;;5011879;28;20045;-61
2023/06/09 11:22:49;;;;;;;6.90;3.28;;;27.70;48.00;;;;;;5001084;28;20040;-62
2023/06/09 11:25:15;;;;;;;4.93;3.05;;;27.70;49.80;;;;;;5000685;28;20033;-61
2023/06/09 11:27:42;;;;;;;5.90;3.22;;;27.60;49.20;;;;;;5014807;28;20481;-59
2023/06/09 11:30:18;;;;;;;4.80;3.10;;;27.80;48.00;;;;;;5008071;28;20037;-59
2023/06/09 11:32:48;;;;;;;5.88;3.05;;;27.90;47.40;;;;;;5009829;28;20049;-59
2023/06/09 11:35:23;;;;;;;7.78;3.65;;;28.00;48.40;;;;;;5009912;28;20029;-59
2023/06/09 11:37:52;;;;;;;8.43;4.55;;;28.10;48.10;;;;;;5010606;28;20116;-60
2023/06/09 11:40:19;;;;;;;4.78;3.45;;;28.20;48.10;;;;;;5005404;28;20038;-60
2023/06/09 11:42:48;;;;;;;6.40;4.22;;;28.30;47.50;;;;;;5011351;28;20021;-60
2023/06/09 11:45:14;;;;;;;4.97;3.90;;;28.30;47.90;;;;;;5007408;28;20482;-61
2023/06/09 11:47:42;;;;;;;7.13;3.35;;;28.30;47.30;;;;;;5007741;28;20030;-60
2023/06/09 11:50:12;;;;;;;5.13;4.05;;;28.30;48.10;;;;;;5011162;28;20032;-60
2023/06/09 11:52:42;;;;;;;5.80;3.65;;;28.30;46.70;;;;;;5006870;28;20630;-57
2023/06/09 11:55:09;;;;;;;4.30;3.20;;;28.30;46.60;;;;;;5008630;28;20103;-60
2023/06/09 11:57:36;;;;;;;8.13;3.90;;;28.30;47.30;;;;;;5007041;28;20065;-59
2023/06/09 12:00:12;;;;;;;5.95;3.35;;;28.40;47.30;;;;;;5005045;28;20038;-60
2023/06/09 12:02:40;;;;;;;4.85;3.60;;;28.40;47.00;;;;;;5003819;28;20042;-61
2023/06/09 12:05:08;;;;;;;4.97;3.55;;;28.40;45.90;;;;;;5008008;28;20104;-62
2023/06/09 12:07:35;;;;;;;10.23;3.80;;;28.30;47.00;;;;;;5000513;28;20105;-62
2023/06/09 12:10:00;;;;;;;4.25;3.20;;;28.40;46.40;;;;;;4999601;28;20021;-61
2023/06/09 12:12:26;;;;;;;4.55;3.20;;;28.40;46.30;;;;;;4999381;28;20246;-62
2023/06/09 12:14:52;;;;;;;4.45;3.17;;;28.50;46.30;;;;;;5010302;28;20030;-62
2023/06/09 12:17:18;;;;;;;3.20;2.85;;;28.40;46.70;;;;;;5007565;28;20034;-63
2023/06/09 12:19:48;;;;;;;5.15;3.22;;;28.40;45.00;;;;;;5008026;28;20040;-62
2023/06/09 12:22:13;;;;;;;3.75;3.13;;;28.50;45.60;;;;;;5009615;28;20022;-62
2023/06/09 12:24:39;;;;;;;6.35;3.25;;;28.40;44.10;;;;;;4965800;28;1183879;-60
2023/06/09 12:27:12;;;;;;;4.60;3.15;;;28.40;45.30;;;;;;5014294;28;20038;-62
2023/06/09 12:29:39;;;;;;;7.05;3.45;;;28.30;45.70;;;;;;5008391;28;20034;-62
2023/06/09 12:32:09;;;;;;;4.32;2.95;;;28.10;46.60;;;;;;5015390;28;20030;-62
2023/06/09 12:34:35;;;;;;;5.38;3.15;;;28.10;46.80;;;;;;5010754;28;20021;-62
2023/06/09 12:37:05;;;;;;;7.90;3.17;;;28.10;45.80;;;;;;5015277;28;20034;-62
2023/06/09 12:39:34;;;;;;;4.13;2.95;;;28.30;45.00;;;;;;5008335;28;20853;-62
2023/06/09 12:42:10;;;;;;;5.03;2.90;;;28.30;45.10;;;;;;5013120;28;20049;-62
2023/06/09 12:44:36;;;;;;;2.88;2.63;;;28.40;45.00;;;;;;5005840;28;20026;-62
2023/06/09 12:47:02;;;;;;;5.88;3.63;;;28.40;44.80;;;;;;4995528;28;20037;-62
2023/06/09 12:49:30;;;;;;;5.03;3.05;;;28.40;44.60;;;;;;5008686;28;20049;-62